createdAt,value
2023-05-25T00:03:33.212Z,30.05
2023-05-25T00:07:45.746Z,28.65
2023-05-25T00:11:59.999Z,20.80
2023-05-25T00:16:12.483Z,18.00
2023-05-25T00:20:25.018Z,15.75
2023-05-25T00:24:38.065Z,13.85
2023-05-25T00:28:50.675Z,17.58
2023-05-25T00:33:03.382Z,17.17
2023-05-25T00:37:16.644Z,17.33
2023-05-25T00:41:29.306Z,16.17
2023-05-25T00:45:41.839Z,17.52
2023-05-25T00:49:54.846Z,13.25
2023-05-25T00:54:07.728Z,14.07
2023-05-25T00:58:22.588Z,11.85
2023-05-25T01:02:36.143Z,15.90
2023-05-25T01:06:49.810Z,12.82
2023-05-25T01:11:05.174Z,11.88
2023-05-25T01:15:18.201Z,9.70
2023-05-25T01:19:33.924Z,12.02
2023-05-25T01:24:08.716Z,13.75
2023-05-25T01:28:30.278Z,10.30
2023-05-25T01:32:43.760Z,11.18
2023-05-25T01:36:56.946Z,12.05
2023-05-25T01:41:09.376Z,13.45
2023-05-25T01:45:22.039Z,10.50
2023-05-25T01:50:03.609Z,10.13
2023-05-25T01:54:20.285Z,10.57
2023-05-25T01:58:44.094Z,10.02
2023-05-25T02:02:56.840Z,8.35
2023-05-25T02:07:11.470Z,10.05
2023-05-25T02:11:23.939Z,9.95
2023-05-25T02:15:36.310Z,8.70
2023-05-25T02:19:53.300Z,10.30
2023-05-25T02:24:06.879Z,9.23
2023-05-25T02:28:19.392Z,11.15
2023-05-25T02:32:33.933Z,12.90
2023-05-25T02:36:47.905Z,8.50
2023-05-25T02:41:00.483Z,9.55
2023-05-25T02:45:13.189Z,9.95
2023-05-25T02:49:26.662Z,9.27
2023-05-25T02:53:39.145Z,9.00
2023-05-25T02:57:52.183Z,10.25
2023-05-25T03:02:21.627Z,8.40
2023-05-25T03:06:36.886Z,10.82
2023-05-25T03:10:56.437Z,11.45
2023-05-25T03:15:09.673Z,8.93
2023-05-25T03:19:22.268Z,10.00
2023-05-25T03:23:34.682Z,6.75
2023-05-25T03:27:54.616Z,11.55
2023-05-25T03:32:07.526Z,10.88
2023-05-25T03:36:22.566Z,10.43
2023-05-25T03:40:34.957Z,11.38
2023-05-25T03:44:47.472Z,12.77
2023-05-25T03:49:00.204Z,10.43
2023-05-25T03:53:12.535Z,12.27
2023-05-25T03:57:24.927Z,8.43
2023-05-25T04:01:39.227Z,9.20
2023-05-25T04:05:51.627Z,7.40
2023-05-25T04:10:04.928Z,8.77
2023-05-25T04:14:17.622Z,13.65
2023-05-25T04:18:30.053Z,7.68
2023-05-25T04:22:44.212Z,10.18
2023-05-25T04:26:57.015Z,9.05
2023-05-25T04:31:09.668Z,7.25
2023-05-25T04:35:51.511Z,12.18
2023-05-25T04:40:09.304Z,8.23
2023-05-25T04:44:21.936Z,11.68
2023-05-25T04:48:38.759Z,8.30
2023-05-25T04:52:51.441Z,9.00
2023-05-25T04:57:04.121Z,11.25
2023-05-25T05:01:17.356Z,8.15
2023-05-25T05:05:30.213Z,11.55
2023-05-25T05:09:44.987Z,7.28
2023-05-25T05:13:57.592Z,11.05
2023-05-25T05:18:10.089Z,10.13
2023-05-25T05:22:22.727Z,8.85
2023-05-25T05:26:48.222Z,14.35
2023-05-25T05:31:12.580Z,19.95
2023-05-25T05:35:26.530Z,21.55
2023-05-25T05:39:46.748Z,13.50
2023-05-25T05:43:59.236Z,17.15
2023-05-25T05:48:11.671Z,17.35
2023-05-25T05:52:24.299Z,17.77
2023-05-25T05:56:36.615Z,10.45
2023-05-25T06:00:50.061Z,13.32
2023-05-25T06:05:03.365Z,13.88
2023-05-25T06:09:16.916Z,17.02
2023-05-25T06:13:30.562Z,14.55
2023-05-25T06:17:44.160Z,17.05
2023-05-25T06:21:58.411Z,19.85
2023-05-25T06:26:11.604Z,13.25
2023-05-25T06:30:24.120Z,15.07
2023-05-25T06:34:38.263Z,15.18
2023-05-25T06:38:51.250Z,7.03
2023-05-25T06:43:03.946Z,11.15
2023-05-25T06:47:56.022Z,14.70
2023-05-25T06:52:08.760Z,11.40
2023-05-25T06:56:21.829Z,14.02
2023-05-25T07:00:36.058Z,21.48
2023-05-25T07:04:48.578Z,17.77
2023-05-25T07:09:01.105Z,17.65
2023-05-25T07:13:14.939Z,25.15
2023-05-25T07:17:31.931Z,16.95
2023-05-25T07:21:46.792Z,16.73
2023-05-25T07:25:59.378Z,20.77
2023-05-25T07:30:12.371Z,22.40
2023-05-25T07:34:26.505Z,16.20
2023-05-25T07:38:41.460Z,14.18
2023-05-25T07:42:54.357Z,20.95
2023-05-25T07:47:07.378Z,15.15
2023-05-25T07:51:19.787Z,17.15
2023-05-25T07:55:33.545Z,19.23
2023-05-25T07:59:47.889Z,21.42
2023-05-25T08:04:00.603Z,14.48
2023-05-25T08:08:18.443Z,16.25
2023-05-25T08:12:46.976Z,11.73
2023-05-25T08:17:03.070Z,11.85
2023-05-25T08:21:16.255Z,10.75
2023-05-25T08:25:28.653Z,13.25
2023-05-25T08:29:41.464Z,17.35
2023-05-25T08:33:53.876Z,13.68
2023-05-25T08:38:06.334Z,12.95
2023-05-25T08:42:18.868Z,13.88
2023-05-25T08:46:31.881Z,12.77
2023-05-25T08:50:45.193Z,12.65
2023-05-25T08:55:01.677Z,13.00
2023-05-25T08:59:39.041Z,13.88
2023-05-25T09:03:52.215Z,7.70
2023-05-25T09:08:09.126Z,8.48
2023-05-25T09:12:23.156Z,8.07
2023-05-25T09:16:38.102Z,11.68
2023-05-25T09:20:50.726Z,10.80
2023-05-25T09:25:08.740Z,8.82
2023-05-25T09:29:22.127Z,10.90
2023-05-25T09:33:36.252Z,12.00
2023-05-25T09:37:49.737Z,12.98
2023-05-25T09:42:05.336Z,11.25
2023-05-25T09:46:18.526Z,9.75
2023-05-25T09:50:32.957Z,13.05
2023-05-25T09:54:46.906Z,11.07
2023-05-25T09:59:00.206Z,13.93
2023-05-25T10:03:15.621Z,11.50
2023-05-25T10:07:29.506Z,13.10
2023-05-25T10:11:44.402Z,10.10
2023-05-25T10:15:58.871Z,14.65
2023-05-25T10:20:12.300Z,11.88
2023-05-25T10:24:38.751Z,10.50
2023-05-25T10:28:53.091Z,16.05
2023-05-25T10:33:06.350Z,12.32
2023-05-25T10:37:19.232Z,9.73
2023-05-25T10:41:33.030Z,10.20
2023-05-25T10:45:45.698Z,12.70
2023-05-25T10:50:01.962Z,14.85
2023-05-25T10:54:15.401Z,11.25
2023-05-25T10:58:29.277Z,13.50
2023-05-25T11:02:55.818Z,12.15
2023-05-25T11:07:14.556Z,21.08
2023-05-25T11:11:47.982Z,14.10
2023-05-25T11:16:15.661Z,8.73
2023-05-25T11:20:30.406Z,12.20
2023-05-25T11:24:46.724Z,8.40
2023-05-25T11:29:00.721Z,11.02
2023-05-25T11:33:13.643Z,11.48
2023-05-25T11:37:32.055Z,15.27
2023-05-25T11:41:50.530Z,15.63
2023-05-25T11:46:03.252Z,13.32
2023-05-25T11:50:17.509Z,13.38
2023-05-25T11:54:31.745Z,12.15
2023-05-25T11:58:50.944Z,9.15
2023-05-25T12:03:03.554Z,11.02
2023-05-25T12:07:16.123Z,8.70
2023-05-25T12:11:32.747Z,15.82
2023-05-25T12:15:48.931Z,16.80
2023-05-25T12:20:03.613Z,14.88
2023-05-25T12:24:18.362Z,16.73
2023-05-25T12:28:30.787Z,15.75
2023-05-25T12:33:05.423Z,12.55
2023-05-25T12:37:22.631Z,15.40
2023-05-25T12:41:56.096Z,15.63
2023-05-25T12:46:09.753Z,21.48
2023-05-25T12:50:23.341Z,20.00
2023-05-25T12:54:46.839Z,14.52
2023-05-25T12:59:23.848Z,20.50
2023-05-25T13:03:40.548Z,19.83
2023-05-25T13:07:54.483Z,19.58
2023-05-25T13:12:07.519Z,17.70
2023-05-25T13:16:20.044Z,19.00
2023-05-25T13:20:32.991Z,12.32
2023-05-25T13:24:45.472Z,9.48
2023-05-25T13:28:59.239Z,11.32
2023-05-25T13:33:11.814Z,16.23
2023-05-25T13:37:26.515Z,17.00
2023-05-25T13:41:38.904Z,21.45
2023-05-25T13:45:51.545Z,14.20
2023-05-25T13:50:04.930Z,15.30
2023-05-25T13:54:19.015Z,21.17
2023-05-25T13:58:31.476Z,16.83
2023-05-25T14:02:44.013Z,18.15
2023-05-25T14:06:57.349Z,19.35
2023-05-25T14:11:09.922Z,15.43
2023-05-25T14:15:22.524Z,12.85
2023-05-25T14:19:35.521Z,16.48
2023-05-25T14:23:47.905Z,17.05
2023-05-25T14:28:00.283Z,14.68
2023-05-25T14:32:12.663Z,14.48
2023-05-25T14:36:25.069Z,16.75
2023-05-25T14:40:37.394Z,12.25
2023-05-25T14:44:49.724Z,11.43
2023-05-25T14:49:02.234Z,14.63
2023-05-25T14:53:17.730Z,18.20
2023-05-25T14:57:30.252Z,18.40
2023-05-25T15:01:42.689Z,20.05
2023-05-25T15:05:55.081Z,10.48
2023-05-25T15:10:11.162Z,13.73
2023-05-25T15:14:23.600Z,10.35
2023-05-25T15:18:36.048Z,14.82
2023-05-25T15:22:48.484Z,13.23
2023-05-25T15:27:01.810Z,11.50
2023-05-25T15:31:14.284Z,11.30
2023-05-25T15:35:31.376Z,18.00
2023-05-25T15:39:44.033Z,17.88
2023-05-25T15:44:01.476Z,13.10
2023-05-25T15:48:13.959Z,14.02
2023-05-25T15:52:26.384Z,14.90
2023-05-25T15:56:41.865Z,14.10
2023-05-25T16:00:57.492Z,14.23
2023-05-25T16:05:13.061Z,16.88
2023-05-25T16:09:25.597Z,12.73
2023-05-25T16:13:38.167Z,15.50
2023-05-25T16:17:50.703Z,13.45
2023-05-25T16:22:03.085Z,11.18
2023-05-25T16:26:16.630Z,13.05
2023-05-25T16:30:29.059Z,11.98
2023-05-25T16:34:41.398Z,13.85
2023-05-25T16:38:56.628Z,14.57
2023-05-25T16:43:10.799Z,14.02
2023-05-25T16:47:23.210Z,9.43
2023-05-25T16:51:35.606Z,9.10
2023-05-25T16:55:48.072Z,10.75
2023-05-25T17:00:00.628Z,8.52
2023-05-25T17:04:12.989Z,7.22
2023-05-25T17:08:25.462Z,7.85
2023-05-25T17:12:37.845Z,11.40
2023-05-25T17:16:50.370Z,6.63
2023-05-25T17:21:02.895Z,9.90
2023-05-25T17:25:15.388Z,8.32
2023-05-25T17:29:32.187Z,6.55
2023-05-25T17:33:44.554Z,8.88
2023-05-25T17:37:57.434Z,8.20
2023-05-25T17:42:10.102Z,7.78
2023-05-25T17:46:25.044Z,12.90
2023-05-25T17:50:38.390Z,6.30
2023-05-25T17:54:50.872Z,7.30
2023-05-25T17:59:03.852Z,11.13
2023-05-25T18:03:16.447Z,11.55
2023-05-25T18:07:28.951Z,10.80
2023-05-25T18:11:41.441Z,17.90
2023-05-25T18:15:54.320Z,9.30
2023-05-25T18:20:10.402Z,10.18
2023-05-25T18:24:23.356Z,13.63
2023-05-25T18:28:38.123Z,12.30
2023-05-25T18:32:50.862Z,12.25
2023-05-25T18:37:06.054Z,14.10
2023-05-25T18:41:21.208Z,12.75
2023-05-25T18:45:35.722Z,13.48
2023-05-25T18:49:48.162Z,14.18
2023-05-25T18:54:10.713Z,17.55
2023-05-25T18:58:28.437Z,14.80
2023-05-25T19:02:41.327Z,17.77
2023-05-25T19:06:59.328Z,17.65
2023-05-25T19:11:11.799Z,29.95
2023-05-25T19:15:27.312Z,22.23
2023-05-25T19:19:39.776Z,20.08
2023-05-25T19:23:52.676Z,20.20
2023-05-25T19:28:05.299Z,23.98
2023-05-25T19:32:26.818Z,18.38
2023-05-25T19:36:44.775Z,16.63
2023-05-25T19:40:57.269Z,20.90
2023-05-25T19:45:10.360Z,23.63
2023-05-25T19:49:22.791Z,20.30
2023-05-25T19:53:35.352Z,17.33
2023-05-25T19:57:47.872Z,20.75
2023-05-25T20:02:00.439Z,20.40
2023-05-25T20:06:15.919Z,17.40
2023-05-25T20:10:28.503Z,18.33
2023-05-25T20:14:41.027Z,14.05
2023-05-25T20:18:53.600Z,16.83
2023-05-25T20:23:06.487Z,21.85
2023-05-25T20:27:19.078Z,17.92
2023-05-25T20:31:32.769Z,15.05
2023-05-25T20:35:46.747Z,21.67
2023-05-25T20:40:03.815Z,18.33
2023-05-25T20:44:16.525Z,16.10
2023-05-25T20:48:28.887Z,17.08
2023-05-25T20:52:41.944Z,18.25
2023-05-25T20:56:54.455Z,18.20
2023-05-25T21:01:06.992Z,23.63
2023-05-25T21:05:19.554Z,20.52
2023-05-25T21:09:32.001Z,17.50
2023-05-25T21:13:44.539Z,15.80
2023-05-25T21:17:56.992Z,15.38
2023-05-25T21:22:11.530Z,15.07
2023-05-25T21:26:23.952Z,11.15
2023-05-25T21:30:36.528Z,11.30
2023-05-25T21:34:49.514Z,11.07
2023-05-25T21:39:01.932Z,12.85
2023-05-25T21:43:14.329Z,12.65
2023-05-25T21:47:26.807Z,11.57
2023-05-25T21:51:39.458Z,12.68
2023-05-25T21:55:53.171Z,12.93
2023-05-25T22:00:06.886Z,8.80
2023-05-25T22:04:29.426Z,10.23
2023-05-25T22:08:41.953Z,9.55
2023-05-25T22:12:54.377Z,11.48
2023-05-25T22:17:07.480Z,10.80
2023-05-25T22:21:20.112Z,14.18
2023-05-25T22:25:32.450Z,9.25
2023-05-25T22:29:45.081Z,10.32
2023-05-25T22:33:58.252Z,7.95
2023-05-25T22:38:11.581Z,8.18
2023-05-25T22:42:24.004Z,6.88
2023-05-25T22:46:36.541Z,13.20
2023-05-25T22:50:49.231Z,8.10
2023-05-25T22:55:01.964Z,10.45
2023-05-25T22:59:14.487Z,9.45
2023-05-25T23:03:27.167Z,7.85
2023-05-25T23:07:39.605Z,11.38
2023-05-25T23:11:57.198Z,7.45
2023-05-25T23:16:12.398Z,8.63
2023-05-25T23:20:25.177Z,9.63
2023-05-25T23:24:38.120Z,11.20
2023-05-25T23:28:50.663Z,8.82
2023-05-25T23:33:03.102Z,10.13
2023-05-25T23:43:38.084Z,7.05
2023-05-25T23:47:50.821Z,6.70
2023-05-25T23:52:03.372Z,10.68
2023-05-25T23:56:15.810Z,8.30
